createdAt,value
2022-11-02T00:00:44.254Z,14.63
2022-11-02T00:03:52.803Z,12.87
2022-11-02T00:06:59.410Z,13.13
2022-11-02T00:10:07.712Z,11.90
2022-11-02T00:13:14.289Z,12.47
2022-11-02T00:16:21.681Z,14.03
2022-11-02T00:19:31.953Z,12.60
2022-11-02T00:22:38.073Z,10.70
2022-11-02T00:25:49.668Z,12.23
2022-11-02T00:28:55.948Z,11.43
2022-11-02T00:32:03.360Z,14.13
2022-11-02T00:35:16.635Z,14.13
2022-11-02T00:38:23.775Z,12.73
2022-11-02T00:41:31.063Z,13.43
2022-11-02T00:44:37.976Z,15.93
2022-11-02T00:47:43.681Z,12.03
2022-11-02T00:50:53.095Z,14.53
2022-11-02T00:54:03.589Z,13.77
2022-11-02T00:57:10.472Z,14.27
2022-11-02T01:00:17.762Z,14.70
2022-11-02T01:03:24.330Z,11.03
2022-11-02T01:06:32.885Z,14.07
2022-11-02T01:09:39.424Z,13.73
2022-11-02T01:12:45.337Z,13.80
2022-11-02T01:15:51.957Z,12.87
2022-11-02T01:18:59.171Z,12.23
2022-11-02T01:22:10.148Z,13.30
2022-11-02T01:25:16.087Z,12.73
2022-11-02T01:28:23.611Z,12.70
2022-11-02T01:31:30.070Z,16.37
2022-11-02T01:34:36.621Z,13.90
2022-11-02T01:37:45.576Z,14.13
2022-11-02T01:40:52.223Z,13.27
2022-11-02T01:44:01.135Z,14.47
2022-11-02T01:47:15.453Z,14.57
2022-11-02T01:50:24.854Z,15.30
2022-11-02T01:53:36.999Z,16.77
2022-11-02T01:56:44.088Z,15.70
2022-11-02T01:59:58.733Z,13.30
2022-11-02T02:03:10.223Z,15.03
2022-11-02T02:06:18.529Z,16.10
2022-11-02T02:09:28.626Z,14.37
2022-11-02T02:12:37.597Z,14.77
2022-11-02T02:15:51.683Z,12.63
2022-11-02T02:19:03.269Z,14.77
2022-11-02T02:22:51.962Z,13.43
2022-11-02T02:26:34.338Z,15.73
2022-11-02T02:29:54.680Z,14.87
2022-11-02T02:33:07.972Z,14.43
2022-11-02T02:36:24.560Z,14.53
2022-11-02T02:39:40.440Z,15.13
2022-11-02T02:42:55.186Z,13.97
2022-11-02T02:46:10.139Z,17.43
2022-11-02T02:49:22.865Z,15.07
2022-11-02T02:52:31.975Z,15.50
2022-11-02T02:55:44.673Z,15.83
2022-11-02T02:58:55.813Z,14.37
2022-11-02T03:02:08.886Z,15.30
2022-11-02T03:05:28.224Z,15.73
2022-11-02T03:08:35.994Z,15.17
2022-11-02T03:11:52.149Z,17.33
2022-11-02T03:15:11.248Z,16.10
2022-11-02T03:18:30.837Z,14.63
2022-11-02T03:21:44.006Z,14.13
2022-11-02T03:24:56.667Z,13.93
2022-11-02T03:28:14.172Z,13.60
2022-11-02T03:31:24.802Z,17.03
2022-11-02T03:34:40.822Z,18.77
2022-11-02T03:37:52.448Z,16.93
2022-11-02T03:41:03.603Z,15.13
2022-11-02T03:44:12.275Z,16.70
2022-11-02T03:47:20.953Z,13.77
2022-11-02T03:50:30.567Z,15.23
2022-11-02T03:53:45.162Z,15.40
2022-11-02T03:56:54.933Z,15.33
2022-11-02T04:00:10.352Z,14.33
2022-11-02T04:03:21.385Z,15.13
2022-11-02T04:06:31.247Z,17.43
2022-11-02T04:09:37.570Z,17.43
2022-11-02T04:12:59.983Z,13.23
2022-11-02T04:16:08.001Z,18.33
2022-11-02T04:19:30.118Z,15.10
2022-11-02T04:23:03.551Z,14.90
2022-11-02T04:26:10.422Z,13.93
2022-11-02T04:29:22.709Z,19.17
2022-11-02T04:32:45.483Z,14.73
2022-11-02T04:35:54.629Z,14.40
2022-11-02T04:39:06.638Z,16.67
2022-11-02T04:42:12.776Z,15.00
2022-11-02T04:45:22.849Z,13.50
2022-11-02T04:48:28.727Z,15.10
2022-11-02T04:51:36.779Z,17.03
2022-11-02T04:54:45.674Z,16.90
2022-11-02T04:57:52.347Z,17.67
2022-11-02T05:00:59.948Z,16.93
2022-11-02T05:04:08.568Z,13.90
2022-11-02T05:07:16.373Z,17.07
2022-11-02T05:10:27.068Z,14.17
2022-11-02T05:13:35.267Z,14.40
2022-11-02T05:16:42.344Z,21.43
2022-11-02T05:19:49.768Z,15.03
2022-11-02T05:22:57.890Z,13.53
2022-11-02T05:26:08.622Z,15.93
2022-11-02T05:29:15.580Z,13.70
2022-11-02T05:32:21.517Z,16.07
2022-11-02T05:35:28.133Z,15.20
2022-11-02T05:38:34.266Z,17.63
2022-11-02T05:41:45.349Z,14.87
2022-11-02T05:44:52.610Z,15.40
2022-11-02T05:47:59.636Z,14.00
2022-11-02T05:51:08.254Z,16.20
2022-11-02T05:54:14.977Z,14.87
2022-11-02T05:57:24.152Z,13.97
2022-11-02T06:00:30.762Z,15.27
2022-11-02T06:03:36.969Z,11.33
2022-11-02T06:06:43.858Z,14.00
2022-11-02T06:09:49.886Z,12.03
2022-11-02T06:13:06.544Z,12.60
2022-11-02T06:16:31.267Z,16.33
2022-11-02T06:19:56.023Z,16.10
2022-11-02T06:23:04.055Z,18.03
2022-11-02T06:26:29.125Z,13.93
2022-11-02T06:29:56.465Z,14.93
2022-11-02T06:33:21.822Z,14.73
2022-11-02T06:36:27.641Z,16.13
2022-11-02T06:39:34.437Z,11.53
2022-11-02T06:43:16.979Z,12.70
2022-11-02T06:46:45.395Z,13.33
2022-11-02T06:50:10.552Z,15.70
2022-11-02T06:53:17.455Z,14.17
2022-11-02T06:56:23.504Z,12.77
2022-11-02T06:59:52.855Z,13.77
2022-11-02T07:03:21.327Z,13.67
2022-11-02T07:06:27.984Z,14.53
2022-11-02T07:09:52.716Z,13.83
2022-11-02T07:13:17.500Z,13.73
2022-11-02T07:16:25.411Z,10.97
2022-11-02T07:19:34.056Z,12.57
2022-11-02T07:22:41.020Z,14.07
2022-11-02T07:25:47.159Z,15.63
2022-11-02T07:28:58.272Z,16.93
2022-11-02T07:32:07.903Z,16.50
2022-11-02T07:35:19.386Z,14.90
2022-11-02T07:38:25.190Z,16.87
2022-11-02T07:41:31.818Z,16.70
2022-11-02T07:44:37.652Z,15.70
2022-11-02T07:47:47.784Z,15.60
2022-11-02T07:50:56.330Z,17.60
2022-11-02T07:54:03.807Z,16.73
2022-11-02T07:57:09.814Z,17.73
2022-11-02T08:00:16.998Z,16.03
2022-11-02T08:03:22.917Z,14.57
2022-11-02T08:06:32.399Z,17.13
2022-11-02T08:09:38.899Z,17.93
2022-11-02T08:12:45.428Z,14.83
2022-11-02T08:15:53.784Z,16.20
2022-11-02T08:19:00.967Z,14.70
2022-11-02T08:22:10.714Z,20.70
2022-11-02T08:25:17.271Z,15.87
2022-11-02T08:28:25.663Z,16.70
2022-11-02T08:31:32.716Z,14.03
2022-11-02T08:34:38.465Z,15.33
2022-11-02T08:37:47.849Z,13.80
2022-11-02T08:40:53.802Z,17.33
2022-11-02T08:44:00.545Z,13.40
2022-11-02T08:47:09.547Z,14.77
2022-11-02T08:50:16.367Z,15.53
2022-11-02T08:53:25.003Z,16.97
2022-11-02T08:56:31.605Z,13.00
2022-11-02T08:59:37.331Z,15.40
2022-11-02T09:02:46.175Z,17.57
2022-11-02T09:05:52.031Z,13.20
2022-11-02T09:09:03.405Z,13.40
2022-11-02T09:12:10.339Z,16.70
2022-11-02T09:15:17.227Z,14.43
2022-11-02T09:18:23.325Z,13.77
2022-11-02T09:21:29.907Z,13.47
2022-11-02T09:24:38.622Z,16.13
2022-11-02T09:27:47.811Z,13.60
2022-11-02T09:30:56.150Z,12.87
2022-11-02T09:34:04.493Z,12.93
2022-11-02T09:37:10.359Z,10.90
2022-11-02T09:40:23.942Z,11.83
2022-11-02T09:43:40.274Z,14.17
2022-11-02T09:47:17.686Z,10.80
2022-11-02T09:50:21.286Z,15.83
2022-11-02T09:53:39.990Z,13.07
2022-11-02T09:56:50.120Z,10.40
2022-11-02T09:59:56.692Z,12.23
2022-11-02T10:03:11.270Z,11.17
2022-11-02T10:06:22.476Z,13.30
2022-11-02T10:09:36.481Z,9.93
2022-11-02T10:12:53.801Z,9.10
2022-11-02T10:16:03.742Z,9.90
2022-11-02T10:19:18.751Z,9.23
2022-11-02T10:22:29.270Z,8.40
2022-11-02T10:25:37.785Z,8.37
2022-11-02T10:28:51.199Z,9.00
2022-11-02T10:31:57.721Z,7.27
2022-11-02T10:35:29.985Z,6.53
2022-11-02T10:38:50.444Z,8.73
2022-11-02T10:42:11.894Z,6.40
2022-11-02T10:45:50.652Z,6.80
2022-11-02T10:49:06.520Z,8.37
2022-11-02T10:52:17.026Z,9.77
2022-11-02T10:55:29.005Z,8.13
2022-11-02T10:58:37.538Z,7.57
2022-11-02T11:01:50.121Z,6.87
2022-11-02T11:05:15.634Z,5.47
2022-11-02T11:08:34.855Z,5.83
2022-11-02T11:11:42.145Z,5.43
2022-11-02T11:21:50.031Z,3.60
2022-11-02T11:24:56.741Z,4.90
2022-11-02T11:28:03.764Z,3.73
2022-11-02T11:31:17.840Z,5.03
2022-11-02T11:34:30.494Z,3.63
2022-11-02T11:37:38.188Z,4.10
2022-11-02T11:40:54.024Z,4.17
2022-11-02T11:44:03.807Z,6.10
2022-11-02T11:47:09.667Z,3.80
2022-11-02T11:50:22.203Z,4.00
2022-11-02T11:53:35.739Z,3.87
2022-11-02T11:56:42.367Z,5.80
2022-11-02T11:59:52.235Z,5.10
2022-11-02T12:03:08.252Z,3.50
2022-11-02T12:06:28.512Z,4.73
2022-11-02T12:09:43.283Z,3.47
2022-11-02T12:13:04.674Z,4.03
2022-11-02T12:16:22.441Z,4.57
2022-11-02T12:19:38.066Z,4.53
2022-11-02T12:22:57.544Z,3.67
2022-11-02T12:26:16.023Z,4.03
2022-11-02T12:29:59.664Z,3.17
2022-11-02T12:33:17.072Z,4.50
2022-11-02T12:36:50.818Z,3.20
2022-11-02T12:43:43.377Z,3.07
2022-11-02T12:46:58.233Z,2.57
2022-11-02T12:50:21.228Z,2.70
2022-11-02T12:53:43.619Z,2.97
2022-11-02T12:56:55.233Z,2.60
2022-11-02T13:00:04.609Z,4.50
2022-11-02T13:03:33.429Z,2.93
2022-11-02T13:06:44.445Z,4.00
2022-11-02T13:09:56.820Z,3.27
2022-11-02T13:13:07.761Z,3.07
2022-11-02T13:16:17.130Z,3.23
2022-11-02T13:19:25.886Z,4.17
2022-11-02T13:22:38.438Z,3.10
2022-11-02T13:25:47.336Z,3.77
2022-11-02T13:28:59.937Z,3.77
2022-11-02T13:32:13.685Z,3.63
2022-11-02T13:35:23.369Z,4.30
2022-11-02T13:38:35.327Z,5.20
2022-11-02T13:42:08.648Z,3.53
2022-11-02T13:45:43.156Z,4.47
2022-11-02T13:49:03.564Z,3.83
2022-11-02T13:52:15.547Z,4.83
2022-11-02T13:55:25.690Z,3.43
2022-11-02T13:58:36.487Z,4.07
2022-11-02T14:01:47.991Z,5.10
2022-11-02T14:04:54.588Z,4.27
2022-11-02T14:08:07.111Z,4.67
2022-11-02T14:11:35.847Z,5.30
2022-11-02T14:14:42.394Z,3.73
2022-11-02T14:18:11.623Z,5.87
2022-11-02T14:21:43.503Z,6.13
2022-11-02T14:25:16.726Z,4.53
2022-11-02T14:28:46.949Z,3.10
2022-11-02T14:32:01.285Z,9.73
2022-11-02T14:35:25.409Z,6.60
2022-11-02T14:39:00.535Z,4.03
2022-11-02T14:42:23.759Z,5.07
2022-11-02T14:45:46.332Z,5.03
2022-11-02T14:48:56.345Z,4.83
2022-11-02T14:52:11.258Z,4.67
2022-11-02T14:55:27.169Z,4.60
2022-11-02T14:58:36.933Z,5.57
2022-11-02T15:01:53.214Z,4.87
2022-11-02T15:05:04.794Z,5.70
2022-11-02T15:08:28.505Z,6.23
2022-11-02T15:11:48.750Z,5.73
2022-11-02T15:14:59.275Z,6.50
2022-11-02T15:18:35.092Z,6.90
2022-11-02T15:21:41.572Z,5.07
2022-11-02T15:24:52.323Z,6.03
2022-11-02T15:28:08.393Z,6.17
2022-11-02T15:31:25.655Z,6.90
2022-11-02T15:34:38.825Z,5.53
2022-11-02T15:38:03.347Z,5.53
2022-11-02T15:41:23.747Z,5.47
2022-11-02T15:45:19.972Z,5.57
2022-11-02T15:48:49.717Z,6.37
2022-11-02T15:52:03.605Z,6.40
2022-11-02T15:55:21.080Z,5.50
2022-11-02T15:58:43.780Z,7.97
2022-11-02T16:02:07.473Z,7.57
2022-11-02T16:05:21.065Z,8.07
2022-11-02T16:08:33.670Z,11.00
2022-11-02T16:11:39.426Z,8.57
2022-11-02T16:14:57.800Z,8.60
2022-11-02T16:18:03.866Z,8.80
2022-11-02T16:21:16.074Z,8.77
2022-11-02T16:24:22.676Z,9.80
2022-11-02T16:27:29.529Z,7.77
2022-11-02T16:30:37.934Z,11.73
2022-11-02T16:33:46.178Z,9.07
2022-11-02T16:36:51.851Z,9.83
2022-11-02T16:39:58.507Z,8.23
2022-11-02T16:43:04.197Z,7.30
2022-11-02T16:46:18.038Z,7.37
2022-11-02T16:49:25.687Z,7.00
2022-11-02T16:52:35.120Z,6.23
2022-11-02T16:55:43.316Z,5.87
2022-11-02T16:58:51.738Z,5.27
2022-11-02T17:02:06.309Z,4.43
2022-11-02T17:05:20.428Z,5.83
2022-11-02T17:08:32.374Z,7.07
2022-11-02T17:11:44.697Z,6.00
2022-11-02T17:14:52.422Z,4.60
2022-11-02T17:18:28.006Z,8.67
2022-11-02T17:21:37.988Z,7.50
2022-11-02T17:24:44.736Z,6.43
2022-11-02T17:27:50.884Z,9.60
2022-11-02T17:30:57.346Z,7.03
2022-11-02T17:34:18.523Z,6.90
2022-11-02T17:37:29.713Z,6.20
2022-11-02T17:40:38.142Z,7.83
2022-11-02T17:43:47.377Z,6.77
2022-11-02T17:46:52.965Z,6.33
2022-11-02T17:50:03.332Z,5.37
2022-11-02T17:53:09.669Z,6.93
2022-11-02T17:56:16.409Z,7.40
2022-11-02T17:59:21.988Z,7.63
2022-11-02T18:02:28.580Z,5.90
2022-11-02T18:05:39.460Z,7.13
2022-11-02T18:09:03.366Z,5.00
2022-11-02T18:12:09.284Z,9.20
2022-11-02T18:15:19.511Z,10.77
2022-11-02T18:18:25.065Z,10.83
2022-11-02T18:21:34.236Z,8.50
2022-11-02T18:24:39.811Z,6.80
2022-11-02T18:27:46.906Z,8.13
2022-11-02T18:30:52.721Z,6.80
2022-11-02T18:33:59.423Z,8.97
2022-11-02T18:37:10.102Z,7.80
2022-11-02T18:40:18.049Z,6.87
2022-11-02T18:43:23.596Z,7.23
2022-11-02T18:46:31.227Z,9.37
2022-11-02T18:49:36.784Z,6.97
2022-11-02T18:52:49.272Z,8.47
2022-11-02T18:55:54.942Z,9.10
2022-11-02T18:59:03.564Z,10.37
2022-11-02T19:02:09.653Z,9.73
2022-11-02T19:05:28.274Z,11.27
2022-11-02T19:08:52.579Z,10.80
2022-11-02T19:12:06.893Z,11.80
2022-11-02T19:15:13.098Z,11.17
2022-11-02T19:18:19.513Z,11.93
2022-11-02T19:21:25.593Z,10.60
2022-11-02T19:24:34.768Z,8.00
2022-11-02T19:27:40.309Z,8.77
2022-11-02T19:30:46.701Z,11.40
2022-11-02T19:33:52.354Z,9.57
2022-11-02T19:36:58.948Z,9.00
2022-11-02T19:40:08.043Z,10.87
2022-11-02T19:43:14.693Z,10.50
2022-11-02T19:46:22.347Z,11.70
2022-11-02T19:49:29.052Z,11.97
2022-11-02T19:52:34.606Z,12.53
2022-11-02T19:55:43.843Z,11.07
2022-11-02T19:58:51.082Z,9.83
2022-11-02T20:01:57.841Z,10.07
2022-11-02T20:05:03.511Z,9.83
2022-11-02T20:08:10.440Z,11.67
2022-11-02T20:11:19.084Z,11.27
2022-11-02T20:14:25.559Z,11.50
2022-11-02T20:17:38.092Z,10.00
2022-11-02T20:20:53.359Z,10.27
2022-11-02T20:23:59.691Z,13.07
2022-11-02T20:27:10.240Z,9.23
2022-11-02T20:30:16.040Z,12.53
2022-11-02T20:33:22.461Z,12.53
2022-11-02T20:36:27.998Z,9.97
2022-11-02T20:39:34.682Z,8.20
2022-11-02T20:42:44.133Z,9.73
2022-11-02T20:45:53.682Z,10.20
2022-11-02T20:49:08.840Z,10.43
2022-11-02T20:52:27.798Z,11.03
2022-11-02T20:55:33.521Z,9.60
2022-11-02T20:58:42.766Z,12.43
2022-11-02T21:01:48.849Z,13.47
2022-11-02T21:04:55.341Z,14.20
2022-11-02T21:08:01.246Z,11.27
2022-11-02T21:11:29.701Z,10.50
2022-11-02T21:14:35.813Z,10.07
2022-11-02T21:17:42.200Z,10.17
2022-11-02T21:20:47.990Z,10.77
2022-11-02T21:23:54.996Z,11.43
2022-11-02T21:27:00.761Z,9.97
2022-11-02T21:30:12.859Z,10.47
2022-11-02T21:33:18.415Z,11.53
2022-11-02T21:36:24.855Z,10.73
2022-11-02T21:39:30.710Z,11.30
2022-11-02T21:42:37.196Z,9.40
2022-11-02T21:45:53.383Z,12.80
2022-11-02T21:49:00.178Z,12.47
2022-11-02T21:52:08.093Z,12.53
2022-11-02T21:55:14.795Z,13.30
2022-11-02T21:58:20.377Z,10.60
2022-11-02T22:01:50.454Z,13.20
2022-11-02T22:04:57.380Z,12.70
2022-11-02T22:08:19.722Z,10.60
2022-11-02T22:11:30.110Z,12.17
2022-11-02T22:14:36.531Z,12.80
2022-11-02T22:17:49.556Z,12.57
2022-11-02T22:20:58.589Z,13.23
2022-11-02T22:24:06.863Z,15.87
2022-11-02T22:27:13.348Z,10.63
2022-11-02T22:30:19.004Z,13.13
2022-11-02T22:33:28.877Z,13.37
2022-11-02T22:36:36.607Z,12.20
2022-11-02T22:39:40.283Z,12.70
2022-11-02T22:42:45.821Z,11.50
2022-11-02T22:45:52.282Z,10.47
2022-11-02T22:49:03.337Z,10.13
2022-11-02T22:52:09.795Z,12.13
2022-11-02T22:55:15.304Z,12.80
2022-11-02T22:58:21.740Z,11.77
2022-11-02T23:01:28.958Z,12.03
2022-11-02T23:04:38.455Z,15.43
2022-11-02T23:07:44.003Z,14.40
2022-11-02T23:11:06.267Z,15.87
2022-11-02T23:14:13.664Z,14.47
2022-11-02T23:17:20.268Z,14.17
2022-11-02T23:20:28.805Z,12.30
2022-11-02T23:23:51.010Z,15.83
2022-11-02T23:26:56.684Z,13.67
2022-11-02T23:30:18.957Z,13.50
2022-11-02T23:33:26.494Z,16.80
2022-11-02T23:36:33.434Z,13.47
2022-11-02T23:39:51.148Z,14.97
2022-11-02T23:42:58.095Z,18.20
2022-11-02T23:46:03.622Z,11.80
2022-11-02T23:49:10.477Z,13.27
2022-11-02T23:52:34.431Z,14.90
2022-11-02T23:55:56.498Z,14.73
2022-11-02T23:59:09.210Z,15.73
